Time;durP1;ratioP1;P1;durP2;ratioP2;P2;SDS_P1;SDS_P2;PMS_P1;PMS_P2;Temp;Humidity;BMP_temperature;BMP_pressure;BME280_temperature;BME280_humidity;BME280_pressure;Samples;Min_cycle;Max_cycle;Signal;HPM_P1;HPM_P2
2022/08/11 00:01:55;;;;;;;13.88;9.27;;;23.30;73.40;;;;;;4971376;28;20042;-76
2022/08/11 00:04:24;;;;;;;10.60;9.60;;;23.30;73.40;;;;;;4981197;28;20026;-76
2022/08/11 00:06:51;;;;;;;10.20;9.20;;;23.30;73.10;;;;;;4959932;28;20035;-76
2022/08/11 00:09:21;;;;;;;10.75;9.70;;;23.30;73.00;;;;;;4981725;28;20036;-76
2022/08/11 00:11:55;;;;;;;12.20;9.68;;;23.30;73.00;;;;;;4968464;28;20794;-76
2022/08/11 00:14:26;;;;;;;12.13;9.60;;;23.20;72.90;;;;;;4976398;28;20126;-77
2022/08/11 00:17:01;;;;;;;11.48;9.13;;;23.20;73.00;;;;;;4973373;28;20516;-77
2022/08/11 00:19:37;;;;;;;12.55;9.52;;;23.20;73.00;;;;;;4972990;28;20039;-76
2022/08/11 00:22:05;;;;;;;11.60;9.60;;;23.20;73.10;;;;;;4988673;28;20027;-76
2022/08/11 00:24:35;;;;;;;10.60;9.60;;;23.20;73.00;;;;;;4974664;28;20023;-76
2022/08/11 00:27:02;;;;;;;9.30;8.40;;;23.20;72.80;;;;;;4979942;28;20478;-76
2022/08/11 00:29:29;;;;;;;9.75;8.75;;;23.20;72.50;;;;;;4985081;28;20312;-77
2022/08/11 00:31:57;;;;;;;9.98;8.82;;;23.20;72.50;;;;;;4967260;28;20122;-76
2022/08/11 00:34:29;;;;;;;9.63;8.63;;;23.20;72.30;;;;;;4971061;28;20047;-76
2022/08/11 00:37:02;;;;;;;11.77;9.33;;;23.20;72.20;;;;;;4966796;28;20031;-77
2022/08/11 00:39:32;;;;;;;12.27;9.20;;;23.20;72.90;;;;;;4979229;28;20031;-77
2022/08/11 00:42:21;;;;;;;14.65;10.48;;;23.10;72.00;;;;;;4972074;28;20042;-77
2022/08/11 00:45:22;;;;;;;9.68;8.77;;;23.10;72.20;;;;;;4969212;28;20026;-76
2022/08/11 00:48:10;;;;;;;12.35;9.45;;;23.10;72.20;;;;;;4989088;28;20418;-77
2022/08/11 00:51:07;;;;;;;9.32;8.50;;;23.20;72.00;;;;;;4972451;28;20041;-77
2022/08/11 00:54:01;;;;;;;10.95;9.02;;;23.10;71.90;;;;;;4979486;28;20026;-76
2022/08/11 00:57:17;;;;;;;10.02;9.10;;;23.10;71.90;;;;;;4971452;28;20382;-76
2022/08/11 01:00:07;;;;;;;10.00;8.57;;;23.10;72.20;;;;;;4953240;28;20050;-76
2022/08/11 01:02:52;;;;;;;9.45;8.57;;;23.00;72.00;;;;;;4972899;28;20413;-76
2022/08/11 01:05:46;;;;;;;12.80;9.18;;;23.10;72.60;;;;;;4966508;28;20447;-76
2022/08/11 01:08:38;;;;;;;10.75;8.95;;;23.00;72.90;;;;;;4972487;28;20054;-77
2022/08/11 01:11:36;;;;;;;10.35;8.65;;;22.90;73.30;;;;;;4967909;28;20536;-76
2022/08/11 01:14:17;;;;;;;10.77;8.38;;;22.90;73.50;;;;;;4968966;28;20101;-76
2022/08/11 01:17:25;;;;;;;11.35;9.27;;;22.90;73.50;;;;;;4988762;28;20517;-76
2022/08/11 01:20:24;;;;;;;9.80;7.95;;;22.90;73.70;;;;;;4966928;28;20035;-76
2022/08/11 01:23:08;;;;;;;9.27;8.07;;;22.80;73.60;;;;;;4967617;28;20501;-75
2022/08/11 01:25:43;;;;;;;9.07;8.15;;;22.80;73.70;;;;;;4987979;28;20026;-77
2022/08/11 01:28:47;;;;;;;9.13;8.23;;;22.80;73.90;;;;;;4972006;28;20408;-76
2022/08/11 01:31:54;;;;;;;10.27;7.57;;;22.80;73.90;;;;;;4984935;28;20027;-77
2022/08/11 01:34:26;;;;;;;8.93;8.13;;;22.80;74.00;;;;;;4964957;28;20137;-77
2022/08/11 01:36:58;;;;;;;8.68;7.85;;;22.80;74.50;;;;;;4970711;28;20181;-76
2022/08/11 01:39:45;;;;;;;9.55;8.65;;;22.80;73.60;;;;;;4970895;28;20023;-76
2022/08/11 01:45:23;;;;;;;9.80;8.77;;;22.70;74.30;;;;;;4971090;28;20086;-77
2022/08/11 01:48:32;;;;;;;10.02;9.02;;;22.70;74.40;;;;;;4972921;28;20031;-76
2022/08/11 01:51:33;;;;;;;10.48;9.48;;;22.70;74.40;;;;;;4965609;28;20051;-76
2022/08/11 01:54:08;;;;;;;10.18;9.07;;;22.70;74.20;;;;;;4922152;28;20038;-77
2022/08/11 01:56:55;;;;;;;9.63;8.73;;;22.70;74.20;;;;;;4973936;28;20508;-76
2022/08/11 01:59:38;;;;;;;11.77;9.85;;;22.70;74.50;;;;;;4968305;28;20046;-76
2022/08/11 02:02:06;;;;;;;8.77;7.97;;;22.70;74.30;;;;;;4972801;28;20026;-76
2022/08/11 02:04:53;;;;;;;10.52;9.48;;;22.60;74.40;;;;;;4970042;28;20381;-77
2022/08/11 02:07:29;;;;;;;10.55;9.45;;;22.60;74.40;;;;;;4969031;28;20126;-77
2022/08/11 02:13:42;;;;;;;10.63;9.52;;;22.60;74.70;;;;;;4972551;28;20042;-75
2022/08/11 02:16:17;;;;;;;11.82;10.43;;;22.60;74.70;;;;;;4971324;28;20041;-76
2022/08/11 02:25:24;;;;;;;11.10;10.10;;;22.60;74.40;;;;;;4946782;28;20031;-77
2022/08/11 02:28:16;;;;;;;11.32;10.32;;;22.60;74.30;;;;;;4943468;28;20510;-77
2022/08/11 02:33:52;;;;;;;11.65;10.57;;;22.60;74.50;;;;;;4970864;28;20101;-77
2022/08/11 02:36:27;;;;;;;11.20;10.02;;;22.60;74.50;;;;;;4965161;28;20031;-76
2022/08/11 02:39:06;;;;;;;11.40;10.20;;;22.60;74.40;;;;;;4969737;28;20557;-75
2022/08/11 02:44:47;;;;;;;11.60;10.52;;;22.60;73.70;;;;;;4975497;28;20310;-76
2022/08/11 02:47:38;;;;;;;13.60;12.30;;;22.60;73.80;;;;;;4966328;28;20031;-76
2022/08/11 02:50:30;;;;;;;14.27;11.27;;;22.60;73.70;;;;;;4962090;28;20027;-76
2022/08/11 02:53:15;;;;;;;12.68;11.27;;;22.60;73.80;;;;;;4969523;28;20105;-76
2022/08/11 02:56:07;;;;;;;11.63;10.52;;;22.60;74.30;;;;;;4971498;28;20041;-76
2022/08/11 03:01:57;;;;;;;13.77;10.80;;;22.50;74.80;;;;;;4964013;28;20457;-76
2022/08/11 03:04:44;;;;;;;11.25;10.23;;;22.50;74.90;;;;;;4972317;28;20039;-76
2022/08/11 03:07:40;;;;;;;12.50;11.23;;;22.50;74.50;;;;;;4973755;28;20027;-76
2022/08/11 03:10:22;;;;;;;12.70;11.13;;;22.50;74.90;;;;;;4979779;28;20037;-76
2022/08/11 03:19:18;;;;;;;11.68;10.48;;;22.40;74.60;;;;;;4964380;28;20081;-76
2022/08/11 03:21:54;;;;;;;11.95;10.85;;;22.50;74.70;;;;;;4973747;28;20023;-75
2022/08/11 03:24:45;;;;;;;12.25;11.07;;;22.50;74.20;;;;;;4969760;28;20564;-76
2022/08/11 03:27:33;;;;;;;12.38;11.18;;;22.50;73.60;;;;;;4970078;28;20437;-75
2022/08/11 03:30:05;;;;;;;13.00;11.77;;;22.50;73.70;;;;;;4966771;28;20090;-75
2022/08/11 03:36:19;;;;;;;11.98;10.75;;;22.50;74.40;;;;;;4972844;28;20030;-76
2022/08/11 03:39:02;;;;;;;12.90;11.65;;;22.40;74.50;;;;;;4988617;28;20032;-76
2022/08/11 03:42:03;;;;;;;11.38;10.20;;;22.40;74.60;;;;;;4974872;28;20493;-77
2022/08/11 03:44:41;;;;;;;21.33;13.15;;;22.40;75.00;;;;;;4992529;28;20061;-76
2022/08/11 03:47:30;;;;;;;11.48;10.48;;;22.40;75.20;;;;;;4967937;28;20030;-76
2022/08/11 03:50:22;;;;;;;12.82;11.35;;;22.30;75.40;;;;;;4986322;28;20030;-77
2022/08/11 03:53:16;;;;;;;11.10;10.00;;;22.30;75.70;;;;;;4977017;28;20038;-76
2022/08/11 03:55:54;;;;;;;12.93;11.23;;;22.30;75.60;;;;;;4995848;28;20022;-76
2022/08/11 03:58:41;;;;;;;12.43;10.52;;;22.30;75.60;;;;;;4973000;28;20101;-76
2022/08/11 04:01:45;;;;;;;11.30;10.20;;;22.30;75.70;;;;;;4974358;28;20019;-76
2022/08/11 04:04:29;;;;;;;11.27;10.18;;;22.30;75.60;;;;;;4988077;28;20034;-76
2022/08/11 04:07:13;;;;;;;11.05;9.98;;;22.30;75.60;;;;;;4973317;28;20030;-76
2022/08/11 04:10:03;;;;;;;11.63;10.43;;;22.20;75.60;;;;;;4981088;28;20117;-77
2022/08/11 04:13:07;;;;;;;13.38;10.07;;;22.20;75.80;;;;;;4973822;28;20528;-76
2022/08/11 04:16:01;;;;;;;12.20;11.00;;;22.20;76.00;;;;;;4977703;28;20434;-76
2022/08/11 04:18:39;;;;;;;13.45;10.57;;;22.20;76.10;;;;;;4972084;28;20319;-75
2022/08/11 04:21:20;;;;;;;10.60;9.32;;;22.20;76.00;;;;;;4973125;28;20473;-76
2022/08/11 04:24:04;;;;;;;13.43;10.30;;;22.20;76.00;;;;;;4971400;28;20019;-76
2022/08/11 04:26:39;;;;;;;11.02;10.02;;;22.20;76.20;;;;;;4975776;28;20456;-77
2022/08/11 04:29:43;;;;;;;11.07;9.93;;;22.20;76.30;;;;;;4967401;28;20034;-76
2022/08/11 04:32:38;;;;;;;10.27;9.23;;;22.20;76.00;;;;;;4977105;28;20099;-76
2022/08/11 04:35:10;;;;;;;11.90;10.88;;;22.20;76.20;;;;;;4979197;28;20023;-76
2022/08/11 04:37:53;;;;;;;10.77;9.05;;;22.10;76.20;;;;;;4982806;28;20042;-76
2022/08/11 04:40:34;;;;;;;;;;;22.10;76.00;;;;;;4975315;28;20042;-76
2022/08/11 04:43:22;;;;;;;13.82;8.85;;;22.10;75.60;;;;;;4959864;28;20354;-76
2022/08/11 04:46:06;;;;;;;10.35;9.15;;;22.10;76.00;;;;;;4980954;28;20113;-76
2022/08/11 05:04:05;;;;;;;10.23;7.72;;;22.00;75.80;;;;;;4977143;28;20041;-76
2022/08/11 05:06:43;;;;;;;8.73;7.75;;;22.00;75.90;;;;;;4970187;28;20027;-77
2022/08/11 05:09:35;;;;;;;10.25;8.45;;;22.00;76.00;;;;;;4988157;28;20038;-76
2022/08/11 05:12:28;;;;;;;9.75;8.02;;;22.00;75.70;;;;;;4963487;28;20106;-76
2022/08/11 05:35:10;;;;;;;9.07;7.30;;;21.90;76.40;;;;;;4966265;28;20085;-76
2022/08/11 05:57:26;;;;;;;7.47;6.78;;;22.00;76.70;;;;;;4975032;28;20038;-75
2022/08/11 06:00:04;;;;;;;8.23;7.40;;;22.00;76.90;;;;;;4969818;28;20034;-76
2022/08/11 06:02:30;;;;;;;8.38;6.78;;;22.00;76.80;;;;;;4978114;28;20062;-76
2022/08/11 06:05:00;;;;;;;9.13;7.78;;;22.10;76.80;;;;;;4970836;28;20081;-75
2022/08/11 06:07:28;;;;;;;8.20;7.40;;;22.10;76.80;;;;;;4977245;28;20077;-75
2022/08/11 06:09:54;;;;;;;8.02;7.07;;;22.00;76.80;;;;;;4970939;28;20129;-76
2022/08/11 06:12:29;;;;;;;7.82;7.03;;;22.10;76.80;;;;;;4972779;28;20054;-76
2022/08/11 06:14:56;;;;;;;9.38;7.35;;;22.10;76.90;;;;;;4970191;28;20030;-76
2022/08/11 06:17:35;;;;;;;8.88;6.60;;;22.10;76.80;;;;;;4977372;28;20117;-76
2022/08/11 06:20:08;;;;;;;8.43;6.95;;;22.10;76.90;;;;;;4969469;28;20034;-77
2022/08/11 06:22:34;;;;;;;7.75;6.93;;;22.10;76.80;;;;;;4971075;28;20046;-76
2022/08/11 06:25:01;;;;;;;9.85;6.60;;;22.10;76.90;;;;;;4975780;28;20035;-76
2022/08/11 06:27:34;;;;;;;9.95;7.38;;;22.10;77.50;;;;;;4975676;28;20046;-76
2022/08/11 06:30:01;;;;;;;7.90;6.43;;;22.10;77.00;;;;;;4973120;28;20039;-76
2022/08/11 06:32:34;;;;;;;8.23;7.18;;;22.10;77.10;;;;;;4971657;28;20077;-76
2022/08/11 06:35:10;;;;;;;9.85;7.75;;;22.10;77.00;;;;;;4970298;28;20038;-76
2022/08/11 06:37:55;;;;;;;11.65;6.43;;;22.10;77.20;;;;;;4968748;28;20069;-76
2022/08/11 06:40:40;;;;;;;8.75;7.13;;;22.20;77.00;;;;;;4969386;28;20033;-76
2022/08/11 06:43:20;;;;;;;7.75;6.70;;;22.20;77.00;;;;;;4971323;28;20034;-76
2022/08/11 06:46:07;;;;;;;8.45;6.88;;;22.20;76.90;;;;;;4983761;28;20525;-76
2022/08/11 06:48:33;;;;;;;9.18;6.72;;;22.20;76.90;;;;;;4972436;28;20478;-76
2022/08/11 06:51:11;;;;;;;9.93;7.00;;;22.20;76.70;;;;;;4966208;28;20039;-76
2022/08/11 06:53:52;;;;;;;8.68;7.20;;;22.20;76.80;;;;;;4985922;28;20029;-76
2022/08/11 07:02:14;;;;;;;8.25;6.00;;;22.20;76.90;;;;;;4966885;28;20101;-76
2022/08/11 07:04:42;;;;;;;8.57;6.88;;;22.30;77.00;;;;;;4969458;28;20081;-76
2022/08/11 07:16:19;;;;;;;9.73;7.65;;;22.30;77.30;;;;;;4972546;28;20038;-76
2022/08/11 07:30:10;;;;;;;6.43;5.82;;;22.30;77.30;;;;;;4974059;28;20042;-76
2022/08/11 07:32:57;;;;;;;11.00;6.82;;;22.30;77.30;;;;;;4979072;28;20038;-76
2022/08/11 07:36:03;;;;;;;8.45;6.57;;;22.30;77.80;;;;;;4972571;28;20066;-76
2022/08/11 07:38:50;;;;;;;8.38;6.97;;;22.30;77.60;;;;;;4974360;28;20120;-76
2022/08/11 07:41:22;;;;;;;8.13;6.57;;;22.30;78.00;;;;;;4973850;28;20027;-76
2022/08/11 07:43:51;;;;;;;7.50;6.28;;;22.30;77.90;;;;;;4976656;28;20561;-76
2022/08/11 07:54:38;;;;;;;6.50;5.90;;;22.30;78.00;;;;;;4971905;28;20037;-76
2022/08/11 08:19:13;;;;;;;6.75;6.05;;;22.30;77.60;;;;;;4974943;28;20449;-76
2022/08/11 08:21:41;;;;;;;7.22;6.53;;;22.30;77.50;;;;;;4965217;28;20042;-76
2022/08/11 08:24:07;;;;;;;7.45;6.63;;;22.40;77.70;;;;;;4965877;28;20031;-77
2022/08/11 08:32:03;;;;;;;8.57;6.30;;;22.40;77.60;;;;;;4973921;28;20547;-76
2022/08/11 08:34:30;;;;;;;6.45;5.65;;;22.30;77.60;;;;;;4980525;28;20049;-76
2022/08/11 08:36:56;;;;;;;7.22;6.43;;;22.30;77.50;;;;;;4973742;28;20135;-76
2022/08/11 08:39:22;;;;;;;5.45;4.95;;;22.30;77.50;;;;;;4976571;28;20039;-76
2022/08/11 08:41:59;;;;;;;7.13;6.43;;;22.40;77.60;;;;;;4975925;28;20405;-76
2022/08/11 08:44:26;;;;;;;6.78;6.10;;;22.40;77.60;;;;;;4976130;28;20026;-76
2022/08/11 08:46:57;;;;;;;6.90;6.20;;;22.40;77.60;;;;;;4980603;28;20069;-76
2022/08/11 08:49:34;;;;;;;5.13;4.63;;;22.40;77.60;;;;;;4971531;28;20444;-76
2022/08/11 08:52:06;;;;;;;10.13;5.90;;;22.40;77.60;;;;;;4973976;28;20407;-76
2022/08/11 08:54:36;;;;;;;7.47;5.60;;;22.40;77.60;;;;;;4982473;28;20074;-76
2022/08/11 08:57:04;;;;;;;12.35;6.75;;;22.40;77.50;;;;;;4971491;28;20539;-76
2022/08/11 08:59:34;;;;;;;6.55;5.68;;;22.40;77.30;;;;;;4968890;28;20494;-76
2022/08/11 09:02:04;;;;;;;9.45;6.25;;;22.40;77.50;;;;;;4973221;28;20170;-76
2022/08/11 09:04:31;;;;;;;7.25;5.47;;;22.40;77.00;;;;;;4972899;28;20058;-76
2022/08/11 09:07:02;;;;;;;8.48;5.82;;;22.40;77.20;;;;;;4974900;28;20416;-76
2022/08/11 09:09:30;;;;;;;7.57;6.63;;;22.40;77.20;;;;;;4971165;28;20601;-76
2022/08/11 09:11:57;;;;;;;12.63;7.70;;;22.40;77.00;;;;;;4976301;28;20488;-76
2022/08/11 09:14:59;;;;;;;6.20;5.60;;;22.40;76.90;;;;;;4971837;28;20015;-76
2022/08/11 09:17:46;;;;;;;7.25;5.40;;;22.40;77.00;;;;;;4971758;28;20030;-76
2022/08/11 09:20:20;;;;;;;6.15;5.18;;;22.40;77.20;;;;;;4969213;28;20131;-76
2022/08/11 09:28:19;;;;;;;7.63;5.57;;;22.40;77.00;;;;;;4973304;28;20053;-76
2022/08/11 09:30:53;;;;;;;8.80;4.90;;;22.40;76.90;;;;;;4976545;28;20030;-76
2022/08/11 09:33:20;;;;;;;7.00;6.30;;;22.40;77.10;;;;;;4970890;28;20401;-76
2022/08/11 09:35:50;;;;;;;9.18;5.63;;;22.40;77.00;;;;;;4969921;28;20520;-76
2022/08/11 09:41:07;;;;;;;6.78;5.43;;;22.40;77.00;;;;;;4971066;28;20038;-76
2022/08/11 09:46:26;;;;;;;6.65;6.03;;;22.40;77.10;;;;;;4969079;28;20049;-76
2022/08/11 09:48:55;;;;;;;6.07;5.47;;;22.40;77.10;;;;;;4973210;28;20036;-76
2022/08/11 09:51:22;;;;;;;5.80;5.20;;;22.40;77.20;;;;;;4969966;28;20026;-76
2022/08/11 09:53:49;;;;;;;5.93;5.40;;;22.40;77.20;;;;;;4968375;28;20027;-76
2022/08/11 09:59:07;;;;;;;5.63;5.13;;;22.40;77.10;;;;;;4970063;28;20033;-76
2022/08/11 10:01:41;;;;;;;6.63;6.03;;;22.40;77.10;;;;;;4968268;28;20030;-77
2022/08/11 10:04:18;;;;;;;7.25;6.55;;;22.40;77.00;;;;;;4968418;28;20027;-76
2022/08/11 10:07:05;;;;;;;7.28;6.05;;;22.40;77.00;;;;;;4966101;28;20027;-76
2022/08/11 10:09:38;;;;;;;7.25;6.28;;;22.40;76.80;;;;;;4968144;28;20044;-76
2022/08/11 10:12:09;;;;;;;7.30;5.88;;;22.40;77.00;;;;;;4972362;28;20033;-76
2022/08/11 10:17:27;;;;;;;6.90;6.20;;;22.40;77.00;;;;;;4974352;28;20037;-76
2022/08/11 10:19:56;;;;;;;6.45;5.85;;;22.40;77.00;;;;;;4971329;28;20034;-76
2022/08/11 10:27:57;;;;;;;6.75;5.72;;;22.40;76.50;;;;;;4968335;28;20089;-76
2022/08/11 10:36:19;;;;;;;6.63;5.97;;;22.50;75.70;;;;;;4949019;28;20027;-76
2022/08/11 10:38:50;;;;;;;8.27;7.57;;;22.50;75.30;;;;;;4937602;29;20130;-76
2022/08/11 10:44:02;;;;;;;10.25;7.13;;;22.50;75.40;;;;;;4976315;28;20038;-76
2022/08/11 10:49:13;;;;;;;7.68;6.97;;;22.60;75.20;;;;;;4973957;28;20597;-76
2022/08/11 10:59:56;;;;;;;7.45;6.72;;;22.60;74.50;;;;;;4971221;28;20053;-76
2022/08/11 11:02:23;;;;;;;8.25;7.45;;;22.60;74.90;;;;;;4970714;28;20034;-76
2022/08/11 11:04:52;;;;;;;7.55;6.80;;;22.50;75.00;;;;;;4980895;28;20055;-76
2022/08/11 11:07:23;;;;;;;7.00;6.40;;;22.60;75.20;;;;;;4974157;28;20070;-76
2022/08/11 11:09:56;;;;;;;8.23;7.20;;;22.60;75.40;;;;;;4965465;28;20101;-76
2022/08/11 11:18:13;;;;;;;9.38;7.25;;;22.60;75.30;;;;;;4966402;28;20034;-76
2022/08/11 11:20:42;;;;;;;7.70;6.95;;;22.50;75.40;;;;;;4969203;28;20038;-76
2022/08/11 11:23:26;;;;;;;7.45;6.70;;;22.60;75.60;;;;;;4967546;28;20027;-76
2022/08/11 11:26:11;;;;;;;8.60;7.28;;;22.60;75.60;;;;;;4979803;28;20185;-76
2022/08/11 11:29:06;;;;;;;8.25;7.43;;;22.60;74.80;;;;;;4966464;28;20051;-76
2022/08/11 11:31:38;;;;;;;8.95;7.95;;;22.60;74.20;;;;;;4965296;28;20436;-76
2022/08/11 11:34:22;;;;;;;12.55;9.10;;;22.60;74.10;;;;;;4976833;28;20031;-77
2022/08/11 11:36:59;;;;;;;10.27;9.05;;;22.60;73.50;;;;;;4968628;28;20034;-76
2022/08/11 11:39:27;;;;;;;8.57;7.70;;;22.70;73.50;;;;;;4963184;28;20027;-76
2022/08/11 11:42:02;;;;;;;8.05;7.32;;;22.70;73.60;;;;;;4976307;28;20033;-76
2022/08/11 11:44:28;;;;;;;9.27;8.48;;;22.70;74.30;;;;;;4971036;28;20035;-76
2022/08/11 11:46:55;;;;;;;7.35;6.75;;;22.70;74.00;;;;;;4975294;28;20118;-76
2022/08/11 11:49:24;;;;;;;9.68;8.73;;;22.60;74.10;;;;;;4969478;28;20041;-76
2022/08/11 11:51:52;;;;;;;9.20;8.38;;;22.70;74.10;;;;;;4962656;28;20110;-76
2022/08/11 11:54:22;;;;;;;10.88;9.90;;;22.70;73.90;;;;;;4970831;28;20026;-76
2022/08/11 11:56:52;;;;;;;8.52;7.72;;;22.70;73.80;;;;;;4967724;28;20041;-76
2022/08/11 12:02:10;;;;;;;10.40;9.40;;;22.60;74.10;;;;;;4982485;28;20441;-76
2022/08/11 12:04:44;;;;;;;9.43;8.63;;;22.60;74.30;;;;;;4972596;28;20489;-76
2022/08/11 12:09:56;;;;;;;8.55;7.72;;;22.60;74.80;;;;;;4968831;28;20046;-76
2022/08/11 12:15:08;;;;;;;11.35;9.45;;;22.60;74.90;;;;;;4968204;28;20037;-76
2022/08/11 12:17:35;;;;;;;10.52;7.47;;;22.60;75.00;;;;;;4973312;28;20023;-76
2022/08/11 12:20:03;;;;;;;9.40;8.52;;;22.60;75.00;;;;;;4972425;28;20038;-76
2022/08/11 12:28:01;;;;;;;12.07;7.47;;;22.60;75.00;;;;;;4973308;28;20061;-76
2022/08/11 12:30:27;;;;;;;8.90;7.97;;;22.60;75.20;;;;;;4989422;28;20468;-76
2022/08/11 12:32:54;;;;;;;9.32;8.45;;;22.60;75.00;;;;;;4981199;28;20027;-76
2022/08/11 12:35:20;;;;;;;12.02;8.55;;;22.60;74.90;;;;;;4986903;28;20581;-76
2022/08/11 12:37:55;;;;;;;8.80;7.78;;;22.70;74.70;;;;;;4978814;28;20074;-76
2022/08/11 12:46:03;;;;;;;11.35;9.95;;;22.70;74.80;;;;;;4970436;28;20547;-76
2022/08/11 12:54:15;;;;;;;10.38;9.20;;;22.70;74.60;;;;;;4983397;28;20050;-76
2022/08/11 13:05:07;;;;;;;9.88;8.98;;;22.70;74.90;;;;;;4975367;28;20448;-76
2022/08/11 13:07:34;;;;;;;11.65;7.97;;;22.70;74.80;;;;;;4974116;28;20035;-76
2022/08/11 13:10:03;;;;;;;11.50;10.32;;;22.70;74.60;;;;;;4983470;28;20030;-76
2022/08/11 13:12:49;;;;;;;10.65;9.65;;;22.80;74.90;;;;;;4974089;28;20442;-76
2022/08/11 13:15:22;;;;;;;18.15;11.68;;;22.80;73.90;;;;;;4972782;28;20038;-77
2022/08/11 13:17:51;;;;;;;9.50;8.60;;;22.80;74.00;;;;;;4973739;28;20023;-76
2022/08/11 13:20:22;;;;;;;11.15;10.00;;;22.80;74.30;;;;;;4964199;28;20085;-77
2022/08/11 13:22:51;;;;;;;12.73;9.68;;;22.80;74.40;;;;;;4973763;28;20027;-77
2022/08/11 13:25:19;;;;;;;9.95;8.93;;;22.80;74.50;;;;;;4972718;28;20421;-76
2022/08/11 13:27:47;;;;;;;11.63;10.10;;;22.80;74.10;;;;;;4975864;28;20059;-76
2022/08/11 13:33:02;;;;;;;10.15;9.15;;;22.80;74.00;;;;;;4974788;28;20038;-76
2022/08/11 13:35:30;;;;;;;15.45;10.35;;;22.80;73.60;;;;;;4987549;28;20027;-76
2022/08/11 13:38:00;;;;;;;10.38;9.40;;;22.80;73.60;;;;;;4968570;28;20048;-77
2022/08/11 13:40:26;;;;;;;10.02;9.07;;;22.80;73.60;;;;;;4986390;28;20030;-76
2022/08/11 13:42:52;;;;;;;11.57;10.02;;;22.90;73.20;;;;;;4971904;28;20545;-77
2022/08/11 13:45:22;;;;;;;12.98;9.90;;;22.90;73.10;;;;;;4987137;28;20062;-76
2022/08/11 13:47:50;;;;;;;11.90;10.82;;;22.90;73.30;;;;;;4975087;28;20157;-76
2022/08/11 13:50:17;;;;;;;12.07;10.88;;;22.90;73.30;;;;;;4973665;28;20445;-76
2022/08/11 13:52:45;;;;;;;10.88;9.88;;;22.90;73.10;;;;;;4965768;28;20023;-76
2022/08/11 13:55:30;;;;;;;9.95;8.90;;;22.90;73.30;;;;;;4975460;28;20489;-77
2022/08/11 13:57:56;;;;;;;10.45;9.50;;;22.90;73.70;;;;;;4969221;28;20070;-77
2022/08/11 14:00:22;;;;;;;10.20;9.20;;;22.90;73.70;;;;;;4969982;28;20045;-76
2022/08/11 14:02:50;;;;;;;10.90;9.85;;;22.90;73.60;;;;;;4968018;28;20027;-76
2022/08/11 14:05:19;;;;;;;10.00;9.10;;;22.90;73.60;;;;;;4971259;28;20031;-76
2022/08/11 14:07:50;;;;;;;11.32;9.88;;;22.90;73.70;;;;;;4974940;28;20618;-76
2022/08/11 14:10:19;;;;;;;11.05;9.23;;;22.90;73.60;;;;;;4971513;28;20035;-76
2022/08/11 14:15:47;;;;;;;10.02;9.13;;;22.90;73.70;;;;;;4965169;28;20120;-76
2022/08/11 14:18:15;;;;;;;11.13;9.95;;;22.90;73.90;;;;;;4973817;28;20474;-76
2022/08/11 14:23:31;;;;;;;9.20;8.30;;;22.90;73.50;;;;;;4972893;28;20054;-76
2022/08/11 14:28:43;;;;;;;9.63;8.70;;;22.90;74.00;;;;;;4962727;28;20054;-76
2022/08/11 14:31:10;;;;;;;11.02;9.98;;;22.90;74.00;;;;;;4971220;28;20022;-76
2022/08/11 14:33:36;;;;;;;10.48;9.57;;;22.90;73.70;;;;;;4965450;28;20057;-76
2022/08/11 14:36:04;;;;;;;10.88;9.85;;;23.00;74.10;;;;;;4965891;28;20023;-76
2022/08/11 14:38:33;;;;;;;10.40;9.40;;;23.00;74.10;;;;;;4970630;28;20042;-76
2022/08/11 14:49:16;;;;;;;11.45;9.73;;;23.00;73.70;;;;;;4971302;28;20033;-76
2022/08/11 14:51:42;;;;;;;10.38;9.48;;;23.00;73.90;;;;;;4970147;28;20713;-76
2022/08/11 14:56:55;;;;;;;11.38;9.75;;;23.00;73.50;;;;;;4966127;28;20049;-76
2022/08/11 14:59:22;;;;;;;11.65;10.55;;;23.00;73.80;;;;;;4971838;28;20382;-76
2022/08/11 15:04:33;;;;;;;11.15;10.15;;;23.00;74.30;;;;;;4966938;28;20649;-76
2022/08/11 15:06:59;;;;;;;11.98;9.10;;;23.00;73.50;;;;;;4959221;28;20122;-76
2022/08/11 15:09:25;;;;;;;10.52;9.55;;;23.00;73.90;;;;;;4957770;28;20078;-76
2022/08/11 15:12:15;;;;;;;9.32;8.43;;;23.00;73.70;;;;;;4976029;28;20023;-76
2022/08/11 15:17:28;;;;;;;11.13;10.13;;;23.00;73.90;;;;;;4959421;28;20082;-76
2022/08/11 15:25:26;;;;;;;10.90;9.80;;;23.00;73.80;;;;;;4967713;28;20124;-76
2022/08/11 15:39:02;;;;;;;10.70;9.70;;;23.10;74.10;;;;;;4972100;28;20094;-77
2022/08/11 15:47:37;;;;;;;10.45;9.55;;;23.10;73.90;;;;;;4972446;28;20076;-76
2022/08/11 15:50:04;;;;;;;10.73;9.73;;;23.10;73.40;;;;;;4964977;28;20402;-76
2022/08/11 15:52:36;;;;;;;10.80;9.85;;;23.10;73.60;;;;;;4995156;28;20023;-76
2022/08/11 15:55:06;;;;;;;12.15;10.18;;;23.10;73.80;;;;;;4970898;28;20031;-76
2022/08/11 16:05:57;;;;;;;11.25;10.25;;;23.10;73.70;;;;;;4972183;28;20037;-76
2022/08/11 16:08:24;;;;;;;11.73;10.73;;;23.10;73.70;;;;;;4975809;28;20038;-76
2022/08/11 16:10:54;;;;;;;10.80;9.82;;;23.10;73.70;;;;;;4975445;28;20232;-76
2022/08/11 16:16:14;;;;;;;10.43;9.00;;;23.20;74.00;;;;;;4966958;28;20074;-76
2022/08/11 16:18:50;;;;;;;11.25;10.18;;;23.20;74.20;;;;;;4969435;28;20030;-76
2022/08/11 16:21:24;;;;;;;10.30;9.45;;;23.20;74.20;;;;;;4967783;28;20034;-76
2022/08/11 16:23:54;;;;;;;11.00;10.00;;;23.20;74.30;;;;;;4973186;28;20093;-76
2022/08/11 16:26:22;;;;;;;10.82;9.82;;;23.20;74.30;;;;;;4976161;28;20411;-76
2022/08/11 16:28:53;;;;;;;11.30;10.30;;;23.20;74.20;;;;;;4971245;28;20583;-76
2022/08/11 16:31:21;;;;;;;9.35;8.45;;;23.10;74.10;;;;;;4975895;28;20481;-76
2022/08/11 16:33:49;;;;;;;10.38;9.32;;;23.10;73.90;;;;;;4970529;28;20026;-76
2022/08/11 16:39:02;;;;;;;9.68;8.77;;;23.20;74.20;;;;;;4972073;28;20043;-76
2022/08/11 16:47:04;;;;;;;13.00;10.98;;;23.20;74.00;;;;;;4987577;28;20041;-76
2022/08/11 16:49:38;;;;;;;11.55;10.45;;;23.20;74.00;;;;;;4969439;28;20042;-76
2022/08/11 16:52:09;;;;;;;10.20;9.20;;;23.20;74.10;;;;;;4976771;28;20028;-76
2022/08/11 16:54:36;;;;;;;12.75;11.45;;;23.20;74.20;;;;;;4972963;28;20030;-76
2022/08/11 16:59:53;;;;;;;11.25;9.90;;;23.20;74.10;;;;;;4973455;28;20093;-76
2022/08/11 17:14:04;;;;;;;12.40;11.18;;;23.20;74.40;;;;;;4963577;28;20061;-76
2022/08/11 17:16:39;;;;;;;11.13;10.02;;;23.20;74.10;;;;;;4963260;28;20274;-76
2022/08/11 17:19:14;;;;;;;9.77;8.88;;;23.20;74.20;;;;;;4981250;28;20863;-76
2022/08/11 17:24:42;;;;;;;10.90;10.00;;;23.30;73.90;;;;;;4962486;28;20137;-76
2022/08/11 17:27:12;;;;;;;11.48;10.13;;;23.20;74.20;;;;;;4963037;28;20444;-76
2022/08/11 17:29:52;;;;;;;10.73;9.73;;;23.30;74.20;;;;;;4967036;28;20031;-76
2022/08/11 17:35:44;;;;;;;10.95;9.85;;;23.30;74.40;;;;;;4971435;28;20038;-76
2022/08/11 17:38:16;;;;;;;11.40;10.32;;;23.30;74.30;;;;;;4961349;28;20126;-76
2022/08/11 17:49:06;;;;;;;11.55;10.45;;;23.20;74.00;;;;;;4965626;28;20089;-77
2022/08/11 17:59:51;;;;;;;11.65;10.65;;;23.20;74.30;;;;;;4967996;28;20045;-76
2022/08/11 18:05:18;;;;;;;12.20;11.07;;;23.20;74.20;;;;;;4973370;28;20029;-78
